Time;durP1;ratioP1;P1;durP2;ratioP2;P2;SDS_P1;SDS_P2;PMS_P1;PMS_P2;Temp;Humidity;BMP_temperature;BMP_pressure;BME280_temperature;BME280_humidity;BME280_pressure;Samples;Min_cycle;Max_cycle;Signal;HPM_P1;HPM_P2
2024/04/15 00:00:13;;;;;;;5.18;0.80;;;9.50;99.90;;;;;;5398806;26;20000;-75
2024/04/15 00:02:39;;;;;;;5.63;0.70;;;9.40;99.90;;;;;;5375874;26;20000;-74
2024/04/15 00:05:05;;;;;;;6.80;1.30;;;9.40;99.90;;;;;;5375538;26;20015;-74
2024/04/15 00:07:32;;;;;;;12.85;0.60;;;9.40;99.90;;;;;;5379533;26;20470;-73
2024/04/15 00:09:58;;;;;;;6.25;0.68;;;9.40;99.90;;;;;;5389012;26;20000;-73
2024/04/15 00:12:23;;;;;;;8.32;1.30;;;9.30;99.90;;;;;;5388844;26;20406;-74
2024/04/15 00:14:49;;;;;;;1.77;0.52;;;9.30;99.90;;;;;;5373732;26;20554;-75
2024/04/15 00:17:14;;;;;;;8.20;1.08;;;9.20;99.90;;;;;;5387424;26;20000;-74
2024/04/15 00:19:40;;;;;;;4.28;0.93;;;9.20;99.90;;;;;;5403554;26;20135;-74
2024/04/15 00:22:06;;;;;;;4.15;0.70;;;9.20;99.90;;;;;;5385266;26;20022;-74
2024/04/15 00:24:31;;;;;;;3.00;0.80;;;9.20;99.90;;;;;;5378053;26;20707;-74
2024/04/15 00:26:57;;;;;;;3.10;0.77;;;9.20;99.90;;;;;;5394099;26;19999;-74
2024/04/15 00:29:23;;;;;;;13.93;0.68;;;9.20;99.90;;;;;;5394686;26;20071;-74
2024/04/15 00:31:48;;;;;;;10.30;1.25;;;9.20;99.90;;;;;;5382896;26;20038;-73
2024/04/15 00:34:14;;;;;;;2.28;0.50;;;9.20;99.90;;;;;;5380833;26;20071;-74
2024/04/15 00:36:42;;;;;;;6.55;0.77;;;9.20;99.90;;;;;;5411442;26;20000;-74
2024/04/15 00:39:08;;;;;;;5.30;0.70;;;9.30;99.90;;;;;;5408679;26;20049;-74
2024/04/15 00:41:33;;;;;;;1.60;0.70;;;9.30;99.90;;;;;;5391515;26;20004;-73
2024/04/15 00:43:59;;;;;;;6.55;1.05;;;9.30;99.90;;;;;;5379944;26;19999;-74
2024/04/15 00:46:25;;;;;;;4.30;0.77;;;9.20;99.90;;;;;;5399353;26;19996;-73
2024/04/15 00:48:50;;;;;;;5.22;0.65;;;9.30;99.90;;;;;;5373242;26;20004;-73
2024/04/15 00:51:17;;;;;;;4.65;1.08;;;9.30;99.90;;;;;;5401300;26;20011;-74
2024/04/15 00:53:45;;;;;;;3.78;0.65;;;9.30;99.90;;;;;;5394415;26;20398;-74
2024/04/15 00:56:12;;;;;;;4.25;0.40;;;9.30;99.90;;;;;;5398870;26;20456;-74
2024/04/15 00:58:39;;;;;;;3.33;0.60;;;9.30;99.90;;;;;;5408760;26;19999;-74
2024/04/15 01:01:05;;;;;;;3.40;1.15;;;9.40;99.90;;;;;;5394806;26;20360;-74
2024/04/15 01:03:30;;;;;;;2.38;0.80;;;9.40;99.90;;;;;;5395281;26;20084;-73
2024/04/15 01:05:56;;;;;;;8.23;0.88;;;9.50;99.90;;;;;;5375445;26;20411;-74
2024/04/15 01:08:22;;;;;;;4.10;0.85;;;9.50;99.90;;;;;;5390675;26;19999;-73
2024/04/15 01:10:47;;;;;;;4.15;0.75;;;9.50;99.90;;;;;;5384138;26;20518;-73
2024/04/15 01:13:13;;;;;;;3.22;1.15;;;9.50;99.90;;;;;;5409495;26;20014;-74
2024/04/15 01:15:39;;;;;;;3.47;0.70;;;9.50;99.90;;;;;;5404288;26;20007;-74
2024/04/15 01:18:05;;;;;;;1.90;0.73;;;9.60;99.90;;;;;;5405098;26;20076;-74
2024/04/15 01:20:30;;;;;;;6.38;0.70;;;9.50;99.90;;;;;;5389300;26;20139;-74
2024/04/15 01:23:07;;;;;;;4.28;0.70;;;9.50;99.90;;;;;;5385039;26;20014;-74
2024/04/15 01:25:33;;;;;;;5.05;0.60;;;9.60;99.90;;;;;;5395045;26;20439;-74
2024/04/15 01:27:59;;;;;;;7.30;0.70;;;9.60;99.90;;;;;;5406733;26;19999;-74
2024/04/15 01:30:24;;;;;;;4.13;0.60;;;9.60;99.90;;;;;;5380025;26;19996;-74
2024/04/15 01:32:50;;;;;;;6.28;0.50;;;9.60;99.90;;;;;;5375199;26;20004;-74
2024/04/15 01:35:15;;;;;;;6.03;0.63;;;9.60;99.90;;;;;;5388595;26;20016;-75
2024/04/15 01:37:42;;;;;;;5.00;1.40;;;9.70;99.90;;;;;;5375049;26;20012;-74
2024/04/15 01:40:08;;;;;;;20.50;1.80;;;9.70;99.90;;;;;;5381642;26;19995;-74
2024/04/15 01:42:33;;;;;;;5.00;1.23;;;9.60;99.90;;;;;;5410335;26;20462;-74
2024/04/15 01:44:59;;;;;;;3.83;0.85;;;9.60;99.90;;;;;;5400852;26;20000;-73
2024/04/15 01:47:24;;;;;;;7.82;1.50;;;9.60;99.90;;;;;;5397644;26;20004;-74
2024/04/15 01:49:50;;;;;;;6.43;0.70;;;9.60;99.90;;;;;;5391671;26;20127;-75
2024/04/15 01:52:15;;;;;;;3.83;0.60;;;9.60;99.90;;;;;;5395217;26;20019;-74
2024/04/15 01:54:43;;;;;;;8.35;0.90;;;9.60;99.90;;;;;;5390046;26;19999;-74
2024/04/15 01:57:08;;;;;;;8.02;1.02;;;9.60;99.90;;;;;;5409099;26;20014;-74
2024/04/15 01:59:34;;;;;;;6.97;0.90;;;9.50;99.90;;;;;;5402340;26;19999;-73
2024/04/15 02:01:59;;;;;;;6.53;0.80;;;9.50;99.90;;;;;;5402127;26;20014;-73
2024/04/15 02:04:25;;;;;;;5.88;0.90;;;9.50;99.90;;;;;;5395279;26;20004;-74
2024/04/15 02:06:50;;;;;;;3.85;0.60;;;9.50;99.90;;;;;;5386454;26;20010;-73
2024/04/15 02:09:16;;;;;;;4.32;0.60;;;9.50;99.90;;;;;;5399297;26;20000;-73
2024/04/15 02:11:41;;;;;;;2.40;0.65;;;9.40;99.90;;;;;;5377466;26;20045;-74
2024/04/15 02:14:07;;;;;;;3.15;1.27;;;9.40;99.90;;;;;;5388629;26;20004;-74
2024/04/15 02:16:32;;;;;;;6.68;1.10;;;9.40;99.90;;;;;;5399486;26;19997;-74
2024/04/15 02:18:58;;;;;;;6.00;1.38;;;9.40;99.90;;;;;;5408946;26;20006;-74
2024/04/15 02:21:23;;;;;;;4.60;0.93;;;9.40;99.90;;;;;;5406826;26;20023;-74
2024/04/15 02:23:49;;;;;;;5.85;0.90;;;9.40;99.90;;;;;;5379988;26;20015;-73
2024/04/15 02:26:14;;;;;;;6.22;0.60;;;9.50;99.90;;;;;;5410773;26;20384;-74
2024/04/15 02:28:40;;;;;;;6.65;1.17;;;9.40;99.90;;;;;;5405815;26;20005;-74
2024/04/15 02:31:06;;;;;;;6.10;0.88;;;9.40;99.90;;;;;;5409369;26;20471;-74
2024/04/15 02:33:31;;;;;;;6.60;1.15;;;9.40;99.90;;;;;;5400811;26;20011;-74
2024/04/15 02:35:57;;;;;;;5.97;1.58;;;9.40;99.90;;;;;;5401079;26;20343;-73
2024/04/15 02:38:22;;;;;;;7.45;1.75;;;9.30;99.90;;;;;;5402045;26;20035;-74
2024/04/15 02:40:48;;;;;;;9.80;1.20;;;9.30;99.90;;;;;;5406896;26;20010;-74
2024/04/15 02:43:13;;;;;;;14.82;1.20;;;9.20;99.90;;;;;;5393364;26;20080;-73
2024/04/15 02:45:41;;;;;;;10.30;1.20;;;9.20;99.90;;;;;;5409169;26;20435;-74
2024/04/15 02:48:07;;;;;;;6.32;1.15;;;9.20;99.90;;;;;;5403424;26;20011;-73
2024/04/15 02:50:32;;;;;;;9.70;1.90;;;9.20;99.90;;;;;;5402326;26;19996;-74
2024/04/15 02:52:58;;;;;;;6.07;1.75;;;9.20;99.90;;;;;;5404892;26;20003;-73
2024/04/15 02:55:23;;;;;;;10.50;1.05;;;9.20;99.90;;;;;;5395264;26;20004;-73
2024/04/15 02:57:49;;;;;;;6.35;0.93;;;9.20;99.90;;;;;;5400843;26;20000;-74
2024/04/15 03:00:15;;;;;;;6.72;1.75;;;9.20;99.90;;;;;;5388496;26;20000;-74
2024/04/15 03:02:40;;;;;;;4.93;1.02;;;9.20;99.90;;;;;;5385415;26;20004;-74
2024/04/15 03:05:06;;;;;;;4.78;1.00;;;9.20;99.90;;;;;;5373942;26;20041;-74
2024/04/15 03:07:31;;;;;;;13.50;2.47;;;9.20;99.90;;;;;;5399518;26;20054;-75
2024/04/15 03:09:57;;;;;;;10.18;1.10;;;9.20;99.90;;;;;;5406777;26;20336;-76
2024/04/15 03:12:23;;;;;;;4.05;1.25;;;9.30;99.90;;;;;;5388851;26;20036;-74
2024/04/15 03:14:49;;;;;;;8.40;1.05;;;9.20;99.90;;;;;;5397806;26;20014;-74
2024/04/15 03:17:15;;;;;;;9.95;1.60;;;9.30;99.90;;;;;;5403171;26;20004;-74
2024/04/15 03:19:40;;;;;;;7.78;1.38;;;9.20;99.90;;;;;;5406037;26;20372;-74
2024/04/15 03:22:08;;;;;;;6.90;1.85;;;9.30;99.90;;;;;;5397102;26;20000;-72
2024/04/15 03:24:34;;;;;;;10.25;1.42;;;9.30;99.90;;;;;;5406736;26;20436;-72
2024/04/15 03:27:00;;;;;;;10.65;1.40;;;9.30;99.90;;;;;;5383746;26;20000;-74
2024/04/15 03:29:26;;;;;;;5.50;1.52;;;9.30;99.90;;;;;;5385140;26;20787;-74
2024/04/15 03:31:51;;;;;;;8.63;1.30;;;9.30;99.90;;;;;;5397753;26;20331;-74
2024/04/15 03:34:18;;;;;;;5.95;1.73;;;9.30;99.90;;;;;;5383867;26;20450;-74
2024/04/15 03:36:43;;;;;;;8.13;1.60;;;9.40;99.90;;;;;;5402166;26;20343;-75
2024/04/15 03:39:09;;;;;;;5.97;1.38;;;9.30;99.90;;;;;;5389036;26;20146;-74
2024/04/15 03:41:35;;;;;;;8.95;1.35;;;9.30;99.90;;;;;;5406104;26;20004;-74
2024/04/15 03:44:00;;;;;;;11.45;1.83;;;9.30;99.90;;;;;;5391064;26;19996;-73
2024/04/15 03:46:26;;;;;;;9.30;1.40;;;9.30;99.90;;;;;;5392158;26;20339;-74
2024/04/15 03:48:51;;;;;;;8.43;1.48;;;9.30;99.90;;;;;;5425080;26;20000;-73
2024/04/15 03:51:17;;;;;;;11.48;1.10;;;9.40;99.90;;;;;;5374612;26;20003;-72
2024/04/15 03:53:42;;;;;;;6.15;1.58;;;9.40;99.90;;;;;;5393045;26;20000;-73
2024/04/15 03:56:08;;;;;;;7.47;1.88;;;9.40;99.90;;;;;;5387779;26;20048;-74
2024/04/15 03:58:33;;;;;;;6.82;1.58;;;9.50;99.90;;;;;;5390284;26;20440;-74
2024/04/15 04:01:00;;;;;;;8.05;2.05;;;9.50;99.90;;;;;;5398699;26;19999;-75
2024/04/15 04:03:26;;;;;;;4.10;1.27;;;9.50;99.90;;;;;;5406822;26;20021;-75
2024/04/15 04:05:55;;;;;;;8.20;2.13;;;9.50;99.90;;;;;;5406542;26;20007;-74
2024/04/15 04:08:21;;;;;;;4.32;1.40;;;9.50;99.90;;;;;;5387425;26;20446;-74
2024/04/15 04:10:47;;;;;;;5.72;1.40;;;9.50;99.90;;;;;;5391751;26;20024;-74
2024/04/15 04:13:13;;;;;;;10.73;1.80;;;9.50;99.90;;;;;;5393196;26;19999;-75
2024/04/15 04:15:40;;;;;;;12.13;2.10;;;9.50;99.90;;;;;;5404245;26;20085;-73
2024/04/15 04:18:06;;;;;;;7.47;1.88;;;9.40;99.90;;;;;;5393694;26;20014;-73
2024/04/15 04:20:32;;;;;;;7.80;1.30;;;9.40;99.90;;;;;;5402265;26;20015;-74
2024/04/15 04:22:57;;;;;;;5.50;1.45;;;9.40;99.90;;;;;;5394691;26;20000;-74
2024/04/15 04:25:25;;;;;;;12.57;1.75;;;9.40;99.90;;;;;;5397607;26;20617;-74
2024/04/15 04:27:50;;;;;;;6.85;1.75;;;9.40;99.90;;;;;;5390203;26;19999;-74
2024/04/15 04:30:16;;;;;;;12.63;1.85;;;9.40;99.90;;;;;;5402218;26;20334;-74
2024/04/15 04:32:42;;;;;;;14.88;2.03;;;9.30;99.90;;;;;;5406874;26;20018;-73
2024/04/15 04:35:09;;;;;;;11.48;2.05;;;9.20;99.90;;;;;;5378087;26;20000;-74
2024/04/15 04:37:34;;;;;;;12.60;2.17;;;9.20;99.90;;;;;;5375223;26;20344;-74
2024/04/15 04:40:00;;;;;;;9.05;1.15;;;9.20;99.90;;;;;;5410468;26;20003;-73
2024/04/15 04:42:26;;;;;;;7.18;1.48;;;9.20;99.90;;;;;;5407705;26;20343;-74
2024/04/15 04:44:55;;;;;;;17.13;2.30;;;9.20;99.90;;;;;;5388161;26;20004;-74
2024/04/15 04:47:21;;;;;;;8.38;2.38;;;9.10;99.90;;;;;;5398534;26;20454;-74
2024/04/15 04:49:53;;;;;;;9.57;1.40;;;9.10;99.90;;;;;;5389695;26;20001;-73
2024/04/15 04:52:19;;;;;;;7.20;1.90;;;9.10;99.90;;;;;;5391301;26;20018;-74
2024/04/15 04:54:48;;;;;;;8.55;1.77;;;9.20;99.90;;;;;;5377532;26;20004;-73
2024/04/15 04:57:14;;;;;;;11.15;2.47;;;9.20;99.90;;;;;;5377459;26;19999;-73
2024/04/15 04:59:39;;;;;;;10.75;1.73;;;9.30;99.90;;;;;;5396737;26;20023;-74
2024/04/15 05:02:05;;;;;;;6.40;1.83;;;9.30;99.90;;;;;;5386647;26;20004;-75
2024/04/15 05:04:30;;;;;;;10.38;1.75;;;9.30;99.90;;;;;;5394090;26;20011;-74
2024/04/15 05:06:56;;;;;;;9.05;1.95;;;9.40;99.90;;;;;;5407173;26;20000;-75
2024/04/15 05:09:21;;;;;;;8.48;2.30;;;9.50;99.90;;;;;;5402449;26;20015;-75
2024/04/15 05:11:47;;;;;;;11.23;2.10;;;9.50;99.90;;;;;;5389842;26;20039;-74
2024/04/15 05:14:13;;;;;;;8.98;2.13;;;9.40;99.90;;;;;;5398216;26;20009;-74
2024/04/15 05:16:38;;;;;;;13.80;2.67;;;9.40;99.90;;;;;;5398299;26;20004;-74
2024/04/15 05:19:04;;;;;;;10.80;3.25;;;9.40;99.90;;;;;;5406021;26;20015;-76
2024/04/15 05:21:29;;;;;;;9.15;1.63;;;9.40;99.90;;;;;;5393137;26;19996;-74
2024/04/15 05:23:55;;;;;;;9.32;1.75;;;9.30;99.90;;;;;;5400920;26;20028;-73
2024/04/15 05:26:20;;;;;;;7.85;1.85;;;9.30;99.90;;;;;;5387494;26;20004;-73
2024/04/15 05:28:46;;;;;;;7.60;1.70;;;9.20;99.90;;;;;;5391773;26;20020;-74
2024/04/15 05:31:11;;;;;;;8.55;1.98;;;9.20;99.90;;;;;;5385899;26;20487;-73
2024/04/15 05:33:37;;;;;;;6.10;1.38;;;9.20;99.90;;;;;;5385999;26;20012;-75
2024/04/15 05:36:03;;;;;;;8.15;1.63;;;9.20;99.90;;;;;;5398252;26;20800;-74
2024/04/15 05:38:31;;;;;;;10.13;1.85;;;9.20;99.90;;;;;;5382423;26;20446;-73
2024/04/15 05:40:57;;;;;;;9.35;2.13;;;9.20;99.90;;;;;;5385787;26;20023;-75
2024/04/15 05:43:22;;;;;;;9.52;1.90;;;9.20;99.90;;;;;;5389977;26;20519;-74
2024/04/15 05:45:48;;;;;;;11.20;2.50;;;9.20;99.90;;;;;;5390083;26;20000;-74
2024/04/15 05:48:13;;;;;;;10.88;1.45;;;9.30;99.90;;;;;;5387789;26;20000;-75
2024/04/15 05:50:39;;;;;;;6.03;1.25;;;9.60;99.90;;;;;;5391424;26;20044;-73
2024/04/15 05:53:05;;;;;;;10.32;1.42;;;10.20;99.90;;;;;;5389797;26;20016;-75
2024/04/15 05:55:30;;;;;;;9.88;1.40;;;11.10;99.90;;;;;;5388606;26;20019;-73
2024/04/15 05:57:56;;;;;;;8.98;1.30;;;12.00;99.90;;;;;;5389002;26;20016;-73
2024/04/15 06:00:21;;;;;;;6.72;1.05;;;12.90;99.90;;;;;;5391665;26;20004;-75
2024/04/15 06:02:47;;;;;;;4.20;0.93;;;13.70;99.90;;;;;;5385876;26;20004;-74
2024/04/15 06:05:13;;;;;;;6.65;0.88;;;14.50;99.90;;;;;;5382821;26;20000;-74
2024/04/15 06:07:38;;;;;;;10.65;1.00;;;15.20;99.90;;;;;;5388903;26;20456;-75
2024/04/15 06:10:04;;;;;;;7.78;1.00;;;15.70;99.90;;;;;;5390487;26;20018;-74
2024/04/15 06:12:31;;;;;;;8.82;1.20;;;16.20;99.90;;;;;;5391214;26;20015;-75
2024/04/15 06:14:57;;;;;;;4.28;0.60;;;16.60;99.90;;;;;;5403331;26;20011;-75
2024/04/15 06:17:22;;;;;;;6.85;1.05;;;17.10;99.90;;;;;;5389109;26;20027;-76
2024/04/15 06:19:48;;;;;;;5.45;0.70;;;17.50;99.90;;;;;;5390897;26;20076;-75
2024/04/15 06:22:14;;;;;;;3.67;0.55;;;17.90;99.60;;;;;;5396234;26;20352;-74
2024/04/15 06:24:39;;;;;;;4.63;0.85;;;18.10;99.40;;;;;;5390548;26;20016;-74
2024/04/15 06:27:05;;;;;;;7.18;0.80;;;18.20;98.80;;;;;;5386560;26;20000;-74
2024/04/15 06:29:30;;;;;;;7.72;0.90;;;18.00;99.00;;;;;;5389747;26;20473;-74
2024/04/15 06:31:56;;;;;;;6.95;0.85;;;17.90;99.00;;;;;;5391493;26;20004;-74
2024/04/15 06:34:24;;;;;;;4.05;0.80;;;17.90;99.00;;;;;;5389054;26;20000;-74
2024/04/15 06:36:52;;;;;;;2.65;0.50;;;18.30;98.40;;;;;;5387724;26;20000;-75
2024/04/15 06:39:17;;;;;;;8.20;0.90;;;18.70;97.60;;;;;;5388924;26;20001;-73
2024/04/15 06:41:43;;;;;;;3.95;0.70;;;18.80;97.00;;;;;;5395762;26;20022;-74
2024/04/15 06:44:10;;;;;;;3.03;0.60;;;18.60;97.50;;;;;;5385290;26;19996;-75
2024/04/15 06:46:35;;;;;;;6.50;0.90;;;18.80;98.00;;;;;;5403621;26;20035;-74
2024/04/15 06:49:01;;;;;;;3.22;0.90;;;18.80;97.40;;;;;;5400541;26;20003;-75
2024/04/15 06:51:27;;;;;;;5.65;1.27;;;18.40;97.20;;;;;;5385003;26;20028;-76
2024/04/15 06:53:52;;;;;;;4.18;1.38;;;18.00;97.20;;;;;;5395033;26;20135;-76
2024/04/15 06:56:18;;;;;;;4.22;0.73;;;17.20;98.10;;;;;;5392795;26;20078;-76
2024/04/15 06:58:43;;;;;;;3.70;0.77;;;16.50;99.00;;;;;;5390473;26;20006;-75
2024/04/15 07:01:10;;;;;;;3.25;0.98;;;16.00;99.60;;;;;;5382663;26;20015;-75
2024/04/15 07:03:35;;;;;;;2.70;0.70;;;15.50;99.90;;;;;;5384076;26;20028;-74
2024/04/15 07:06:01;;;;;;;4.78;0.63;;;14.90;99.90;;;;;;5392444;26;20000;-76
2024/04/15 07:08:26;;;;;;;3.55;0.63;;;14.60;99.90;;;;;;5388382;26;20362;-73
2024/04/15 07:10:52;;;;;;;3.67;0.90;;;14.20;99.90;;;;;;5387721;26;20455;-74
2024/04/15 07:13:18;;;;;;;3.65;0.60;;;13.90;99.90;;;;;;5393823;26;20006;-74
2024/04/15 07:15:44;;;;;;;5.18;1.20;;;13.60;99.90;;;;;;5385508;26;20008;-73
2024/04/15 07:18:11;;;;;;;7.88;0.80;;;13.40;99.90;;;;;;5393267;26;20018;-75
2024/04/15 07:20:36;;;;;;;3.53;0.55;;;13.30;99.90;;;;;;5393837;26;20022;-74
2024/04/15 07:23:03;;;;;;;4.32;0.60;;;13.30;99.90;;;;;;5391811;26;20448;-73
2024/04/15 07:25:28;;;;;;;5.70;0.75;;;13.10;99.90;;;;;;5390161;26;20016;-74
2024/04/15 07:27:54;;;;;;;9.55;1.98;;;12.90;99.90;;;;;;5391204;26;20012;-74
2024/04/15 07:30:20;;;;;;;12.60;1.38;;;12.90;99.90;;;;;;5383663;26;20015;-74
2024/04/15 07:32:45;;;;;;;6.45;1.05;;;12.90;99.90;;;;;;5398670;26;20001;-73
2024/04/15 07:35:11;;;;;;;6.45;1.05;;;12.90;99.90;;;;;;5379232;26;20003;-74
2024/04/15 07:37:37;;;;;;;8.50;1.58;;;12.80;99.90;;;;;;5388378;26;20008;-74
2024/04/15 07:40:04;;;;;;;6.78;1.10;;;12.80;99.90;;;;;;5392245;26;20014;-74
2024/04/15 07:42:30;;;;;;;5.50;1.65;;;12.80;99.90;;;;;;5387779;26;20007;-74
2024/04/15 07:44:56;;;;;;;7.68;1.20;;;12.70;99.90;;;;;;5383703;26;20004;-74
2024/04/15 07:47:21;;;;;;;6.00;1.10;;;12.70;99.90;;;;;;5382010;26;20343;-73
2024/04/15 07:49:47;;;;;;;14.38;1.80;;;12.70;99.90;;;;;;5389606;26;20011;-74
2024/04/15 07:52:12;;;;;;;4.80;1.25;;;12.60;99.90;;;;;;5388459;26;20000;-74
2024/04/15 07:54:38;;;;;;;4.82;1.20;;;12.50;99.90;;;;;;5388095;26;20402;-74
2024/04/15 07:57:03;;;;;;;9.73;1.38;;;12.50;99.90;;;;;;5387532;26;20015;-74
2024/04/15 07:59:29;;;;;;;4.88;0.63;;;12.30;99.90;;;;;;5382751;26;19995;-74
2024/04/15 08:01:55;;;;;;;6.25;1.75;;;12.30;99.90;;;;;;5400193;26;20035;-74
2024/04/15 08:04:20;;;;;;;13.98;1.63;;;12.30;99.90;;;;;;5391072;26;19992;-73
2024/04/15 08:06:46;;;;;;;4.30;1.10;;;12.30;99.90;;;;;;5380707;26;20000;-74
2024/04/15 08:09:11;;;;;;;9.40;0.98;;;12.40;99.90;;;;;;5387779;26;20020;-74
2024/04/15 08:11:37;;;;;;;5.32;0.80;;;12.40;99.90;;;;;;5394574;26;20455;-74
2024/04/15 08:14:02;;;;;;;10.13;1.52;;;12.40;99.90;;;;;;5388564;26;20011;-75
2024/04/15 08:16:28;;;;;;;8.43;1.17;;;12.40;99.90;;;;;;5395198;26;20010;-74
2024/04/15 08:18:54;;;;;;;6.07;1.52;;;12.50;99.90;;;;;;5387083;26;20039;-74
2024/04/15 08:21:20;;;;;;;5.90;0.85;;;12.50;99.90;;;;;;5387194;26;20001;-74
2024/04/15 08:23:46;;;;;;;8.93;1.35;;;12.60;99.90;;;;;;5388219;26;20003;-74
2024/04/15 08:26:12;;;;;;;8.70;1.65;;;12.70;99.90;;;;;;5387771;26;20021;-74
2024/04/15 08:28:38;;;;;;;5.60;0.82;;;12.60;99.90;;;;;;5393999;26;20012;-74
2024/04/15 08:31:04;;;;;;;6.05;1.13;;;12.60;99.90;;;;;;5390248;26;20451;-74
2024/04/15 08:33:29;;;;;;;3.97;0.65;;;12.60;99.90;;;;;;5384436;26;20871;-74
2024/04/15 08:35:55;;;;;;;12.73;1.20;;;12.60;99.90;;;;;;5387232;26;20031;-74
2024/04/15 08:38:21;;;;;;;7.80;0.90;;;12.70;99.90;;;;;;5384060;26;20018;-74
2024/04/15 08:40:56;;;;;;;5.80;1.75;;;12.90;99.90;;;;;;5384669;26;20003;-74
2024/04/15 08:43:23;;;;;;;8.02;0.93;;;12.90;99.90;;;;;;5379895;26;20774;-74
2024/04/15 08:46:00;;;;;;;6.40;0.73;;;12.90;99.90;;;;;;5389390;26;20004;-74
2024/04/15 08:48:26;;;;;;;7.15;0.98;;;13.00;99.90;;;;;;5385893;26;20129;-74
2024/04/15 08:50:56;;;;;;;3.67;1.23;;;13.10;99.90;;;;;;5396712;26;20041;-74
2024/04/15 08:53:22;;;;;;;4.00;0.87;;;13.10;99.90;;;;;;5394435;26;20015;-74
2024/04/15 08:55:47;;;;;;;7.15;0.60;;;13.00;99.90;;;;;;5390444;26;20032;-74
2024/04/15 08:58:13;;;;;;;3.70;0.68;;;13.00;99.90;;;;;;5386010;26;20411;-75
2024/04/15 09:00:41;;;;;;;5.95;0.65;;;13.00;99.90;;;;;;5388594;26;20015;-73
2024/04/15 09:03:09;;;;;;;9.05;0.80;;;13.10;99.90;;;;;;5391969;26;20016;-74
2024/04/15 09:05:34;;;;;;;4.47;0.55;;;13.10;99.90;;;;;;5386406;26;20008;-75
2024/04/15 09:08:00;;;;;;;3.65;0.55;;;13.10;99.90;;;;;;5386636;26;20081;-75
2024/04/15 09:10:26;;;;;;;6.00;1.10;;;12.90;99.90;;;;;;5381211;26;20016;-74
2024/04/15 09:12:52;;;;;;;3.13;1.10;;;12.90;99.90;;;;;;5387129;26;20569;-75
2024/04/15 09:15:20;;;;;;;10.00;1.00;;;12.80;99.90;;;;;;5390157;26;20046;-74
2024/04/15 09:17:47;;;;;;;5.22;0.80;;;12.80;99.90;;;;;;5392434;26;19999;-74
2024/04/15 09:20:13;;;;;;;4.35;1.50;;;12.70;99.90;;;;;;5387256;26;20000;-74
2024/04/15 09:22:39;;;;;;;5.70;0.70;;;12.70;99.90;;;;;;5393892;26;20367;-74
2024/04/15 09:25:08;;;;;;;9.77;1.02;;;12.50;99.90;;;;;;5389229;26;20039;-74
2024/04/15 09:27:33;;;;;;;6.47;0.70;;;12.50;99.90;;;;;;5384934;26;20019;-74
2024/04/15 09:30:00;;;;;;;10.85;1.20;;;12.50;99.90;;;;;;5389691;26;20000;-74
2024/04/15 09:32:25;;;;;;;3.47;0.60;;;12.50;99.90;;;;;;5389912;26;20098;-75
2024/04/15 09:35:04;;;;;;;7.00;1.17;;;12.70;99.90;;;;;;5391248;26;20383;-74
2024/04/15 09:37:36;;;;;;;4.00;0.73;;;12.70;99.90;;;;;;5379928;26;20440;-74
2024/04/15 09:40:04;;;;;;;3.85;1.25;;;12.90;99.90;;;;;;5389506;26;19996;-74
2024/04/15 09:42:29;;;;;;;28.20;2.33;;;13.00;99.90;;;;;;5389593;26;20336;-73
2024/04/15 09:44:57;;;;;;;2.53;0.50;;;13.10;99.90;;;;;;5393737;26;20012;-74
2024/04/15 09:47:23;;;;;;;6.00;1.33;;;13.10;99.90;;;;;;5380794;26;21250;-75
2024/04/15 09:49:48;;;;;;;3.15;0.90;;;13.00;99.90;;;;;;5383382;26;20080;-74
2024/04/15 09:52:22;;;;;;;2.22;0.47;;;12.90;99.90;;;;;;5394348;26;19999;-73
2024/04/15 09:54:53;;;;;;;4.43;0.63;;;12.80;99.90;;;;;;5395307;26;20007;-74
2024/04/15 09:57:18;;;;;;;5.53;0.77;;;12.60;99.90;;;;;;5397256;26;20032;-74
2024/04/15 09:59:45;;;;;;;4.43;0.75;;;12.20;99.90;;;;;;5389529;26;20011;-74
2024/04/15 10:02:23;;;;;;;4.78;0.50;;;11.90;99.90;;;;;;5387649;26;20015;-74
2024/04/15 10:04:54;;;;;;;5.75;1.05;;;11.60;99.90;;;;;;5393673;26;20015;-74
2024/04/15 10:07:20;;;;;;;4.47;0.80;;;11.40;99.90;;;;;;5390227;26;20073;-74
2024/04/15 10:09:48;;;;;;;13.80;1.00;;;11.20;99.90;;;;;;5390147;26;20010;-74
2024/04/15 10:12:15;;;;;;;8.82;1.65;;;11.20;99.90;;;;;;5383024;26;20000;-75
2024/04/15 10:14:42;;;;;;;11.02;1.23;;;11.30;99.90;;;;;;5387960;26;20344;-74
2024/04/15 10:17:08;;;;;;;8.82;1.95;;;11.50;99.90;;;;;;5381215;26;20011;-75
2024/04/15 10:19:34;;;;;;;6.32;1.48;;;11.60;99.90;;;;;;5393948;26;20456;-74
2024/04/15 10:22:01;;;;;;;12.05;1.75;;;11.70;99.90;;;;;;5378080;26;20008;-75
2024/04/15 10:24:27;;;;;;;5.35;1.27;;;11.70;99.90;;;;;;5384004;26;20081;-74
2024/04/15 10:26:53;;;;;;;6.28;1.48;;;11.70;99.90;;;;;;5393937;26;20000;-74
2024/04/15 10:29:24;;;;;;;4.78;1.58;;;11.70;99.90;;;;;;5387066;26;20019;-74
2024/04/15 10:31:51;;;;;;;5.53;1.10;;;11.60;99.90;;;;;;5392563;26;20004;-73
2024/04/15 10:34:19;;;;;;;2.50;1.05;;;11.60;99.90;;;;;;5391169;26;20332;-73
2024/04/15 10:36:48;;;;;;;3.53;0.85;;;11.40;99.90;;;;;;5395607;26;20019;-74
2024/04/15 10:39:15;;;;;;;8.82;1.05;;;11.20;99.90;;;;;;5393767;26;20082;-74
2024/04/15 10:41:46;;;;;;;2.35;1.30;;;11.10;99.90;;;;;;5394973;26;19999;-73
2024/04/15 10:44:12;;;;;;;18.23;2.35;;;10.80;99.90;;;;;;5389414;26;20014;-74
2024/04/15 10:46:43;;;;;;;15.80;1.90;;;10.50;99.90;;;;;;5398330;26;20444;-74
2024/04/15 10:49:09;;;;;;;11.13;1.67;;;10.30;99.90;;;;;;5388860;26;20502;-74
2024/04/15 10:51:35;;;;;;;8.50;1.65;;;10.10;99.90;;;;;;5389352;26;20023;-74
2024/04/15 10:54:00;;;;;;;13.32;2.05;;;10.00;99.90;;;;;;5388110;26;20000;-74
2024/04/15 10:56:26;;;;;;;9.20;1.95;;;9.90;99.90;;;;;;5382471;26;20098;-74
2024/04/15 10:58:52;;;;;;;7.72;1.52;;;9.80;99.90;;;;;;5385545;26;20018;-74
2024/04/15 11:01:17;;;;;;;5.47;1.33;;;9.80;99.90;;;;;;5396012;26;19995;-75
2024/04/15 11:03:45;;;;;;;4.88;1.83;;;9.80;99.90;;;;;;5398183;26;20011;-74
2024/04/15 11:06:11;;;;;;;6.38;1.48;;;9.80;99.90;;;;;;5383222;26;20000;-74
2024/04/15 11:08:36;;;;;;;8.98;1.60;;;9.70;99.90;;;;;;5383931;26;20091;-74
2024/04/15 11:11:02;;;;;;;10.98;2.20;;;9.70;99.90;;;;;;5404118;26;20179;-74
2024/04/15 11:13:28;;;;;;;6.50;1.98;;;9.60;99.90;;;;;;5395624;26;19996;-74
2024/04/15 11:15:56;;;;;;;7.75;1.65;;;9.60;99.90;;;;;;5392421;26;20013;-75
2024/04/15 11:18:22;;;;;;;5.50;1.58;;;9.60;99.90;;;;;;5386303;26;20328;-75
2024/04/15 11:20:57;;;;;;;8.30;1.73;;;9.70;99.90;;;;;;5387903;26;20021;-75
2024/04/15 11:23:23;;;;;;;9.30;2.25;;;9.80;99.90;;;;;;5397344;26;20000;-75
2024/04/15 11:25:48;;;;;;;5.88;2.25;;;10.00;99.90;;;;;;5393961;26;20444;-75
2024/04/15 11:28:16;;;;;;;7.43;2.00;;;10.20;99.90;;;;;;5384114;26;20023;-75
2024/04/15 11:30:42;;;;;;;9.52;2.45;;;10.20;99.90;;;;;;5386762;26;20004;-74
2024/04/15 11:33:07;;;;;;;12.35;2.53;;;10.00;99.90;;;;;;5394961;26;20068;-75
2024/04/15 11:35:34;;;;;;;7.13;1.23;;;10.00;99.90;;;;;;5380270;26;20463;-75
2024/04/15 11:38:02;;;;;;;8.63;1.83;;;10.00;99.90;;;;;;5394988;26;20000;-75
2024/04/15 11:40:28;;;;;;;9.63;1.77;;;10.10;99.90;;;;;;5391101;26;20008;-75
2024/04/15 11:42:54;;;;;;;6.30;1.50;;;10.00;99.90;;;;;;5384208;26;20000;-75
2024/04/15 11:45:20;;;;;;;8.07;1.20;;;10.00;99.90;;;;;;5387359;26;19996;-74
2024/04/15 11:47:54;;;;;;;11.05;1.10;;;10.00;99.90;;;;;;5388667;26;20124;-74
2024/04/15 11:50:20;;;;;;;14.98;1.63;;;10.00;99.90;;;;;;5393097;26;20464;-75
2024/04/15 11:52:46;;;;;;;5.30;0.80;;;10.10;99.90;;;;;;5386287;26;20032;-74
2024/04/15 11:55:16;;;;;;;22.95;4.30;;;10.30;99.90;;;;;;5388247;26;20009;-75
2024/04/15 11:57:41;;;;;;;5.60;0.90;;;10.20;99.90;;;;;;5389336;26;20012;-74
2024/04/15 12:00:09;;;;;;;5.38;1.40;;;10.30;99.90;;;;;;5386082;26;20459;-75
2024/04/15 12:02:40;;;;;;;5.45;1.35;;;10.40;99.90;;;;;;5383770;26;20003;-75
2024/04/15 12:05:07;;;;;;;4.78;1.02;;;10.50;99.90;;;;;;5396151;26;20098;-75
2024/04/15 12:07:32;;;;;;;2.85;1.00;;;10.70;99.90;;;;;;5396300;26;20004;-74
2024/04/15 12:09:58;;;;;;;8.82;1.85;;;10.90;99.90;;;;;;5391038;26;20004;-74
2024/04/15 12:12:24;;;;;;;5.43;1.15;;;10.80;99.90;;;;;;5383939;26;20000;-75
2024/04/15 12:14:50;;;;;;;5.88;1.08;;;10.80;99.90;;;;;;5391236;26;20022;-74
2024/04/15 12:17:15;;;;;;;7.43;0.90;;;10.70;99.90;;;;;;5383624;26;20039;-75
2024/04/15 12:19:41;;;;;;;6.00;1.15;;;10.60;99.90;;;;;;5385694;26;20004;-74
2024/04/15 12:22:07;;;;;;;2.05;0.60;;;10.50;99.90;;;;;;5392105;26;20015;-75
2024/04/15 12:24:33;;;;;;;4.18;0.77;;;10.30;99.90;;;;;;5386660;26;20077;-76
2024/04/15 12:26:58;;;;;;;4.65;0.57;;;10.20;99.90;;;;;;5389283;26;20441;-75
2024/04/15 12:29:24;;;;;;;8.18;0.93;;;10.00;99.90;;;;;;5386405;26;20000;-75
2024/04/15 12:31:50;;;;;;;5.65;0.98;;;9.80;99.90;;;;;;5393661;26;20508;-76
2024/04/15 12:34:16;;;;;;;2.65;0.28;;;9.70;99.90;;;;;;5379949;26;20012;-75
2024/04/15 12:36:42;;;;;;;1.58;0.85;;;9.20;99.90;;;;;;5391105;26;19995;-76
2024/04/15 12:39:09;;;;;;;1.33;0.57;;;8.40;99.90;;;;;;5388995;26;20381;-75
2024/04/15 12:41:35;;;;;;;1.13;0.00;;;7.90;99.90;;;;;;5380732;26;20015;-75
2024/04/15 12:44:01;;;;;;;2.20;0.50;;;7.50;99.90;;;;;;5383196;26;20012;-75